Fisher, LA (71426)

9:38 AM CST on December 03, 2016 (GMT -0600)
Fort Polk | | Change Station

Elev 364 ft 31.40 °N, 93.28 °W | Updated 24 minutes ago

Heavy Rain
Heavy Rain Mist
46 °F
Feels Like 42 °F
N
8
Wind Variable Wind from ENE

Today
High -- | Low -- °F
--% Chance of Precip.
Yesterday
High -- | Low -- °F
Precip. -- in
Pressure 30.05 in
Visibility 1.8 miles
Clouds Mostly Cloudy 800 ft
Overcast 1400 ft
Windchill 42 °F
Dew Point 45 °F
Humidity 96%
Rainfall 0.88 in
Snow Depth Not available.
6:57 AM 5:10 PM
Waxing Crescent, 15% visible
SPECI KAQV 031514Z AUTO 06007KT 020V100 1 3/4SM +RA BR BKN008 OVC014 08/07 A3005 RMK AO2 CIG 006V012 P0011 T00780072
Pressure 30.05 in
Visibility 1.8 miles
Clouds Mostly Cloudy 800 ft
Overcast 1400 ft
Windchill 42 °F
Dew Point 45 °F
Humidity 96%
Rainfall 0.88 in
Snow Depth Not available.
6:57 AM 5:10 PM
Waxing Crescent, 15% visible
SPECI KAQV 031514Z AUTO 06007KT 020V100 1 3/4SM +RA BR BKN008 OVC014 08/07 A3005 RMK AO2 CIG 006V012 P0011 T00780072

10-Day Weather Forecast

Almanac

Astronomy

Dec. 03, 2016 Rise Set
Actual Time
Civil Twilight
Nautical Twilight
Astronomical Twilight
Moon
Length of Visible Light
Length of Day
Tomorrow will be .
, % of the Moon is Illuminated

Today's Extremes

State Highs State Lows

Community

WunderPhotos

Upload Photos

1,955,425 photos uploaded!

WunderBlog® & News

Nearby

Air Quality

  Air Quality AQ Index Pollutant
Not available.

Snow Depth

Station Depth Elevation

Earthquake Activity

City Distance Mag. Time & Date
Minimum magnitude displayed is 2.5.

Coastal Water Temperatures

Place Temperature

Stations

Nearby Weather Stations

Station Location Temp. Windchill Dew Point Humidity Wind Precip. Elev Updated Type
                   

Watches & Warnings

There are currently no watches in effect.